FAD775 OEMA-HECA
Flight info
| Callsign | FAD775 |
|---|---|
| Flight time | 1h 36m |
| Altitude | 36000 |
| Route | PEGUR Z712 WEJ L677 CVO |
| Aircraft | A320/M-SDE3FGHIRWY/LB1 |
Departure
| Time | 2026-05-06 14:49 |
|---|---|
| Airport | Prince Mohammad Bin Abdulaziz Airport (OEMA) |
Arrival
| Time | 2026-05-06 16:25 |
|---|---|
| Airport | Cairo International Airport (HECA) |
| Time | Latitude | Longitude | Altitude | Speed | Heading |
|---|---|---|---|---|---|
| 2026-05-06 14:37 | 24.55319 | 39.71323 | 2105 ft | 0 kts | 78° |
| 2026-05-06 14:38 | 24.55318 | 39.71318 | 2105 ft | 3 kts | 78° |
| 2026-05-06 14:38 | 24.55312 | 39.71289 | 2105 ft | 4 kts | 76° |
| 2026-05-06 14:38 | 24.55305 | 39.71261 | 2106 ft | 4 kts | 71° |
| 2026-05-06 14:38 | 24.55294 | 39.71234 | 2105 ft | 4 kts | 51° |
| 2026-05-06 14:39 | 24.55278 | 39.71221 | 2105 ft | 2 kts | 351° |
| 2026-05-06 14:39 | 24.55276 | 39.71221 | 2105 ft | 0 kts | 349° |
| 2026-05-06 14:42 | 24.55309 | 39.71214 | 2106 ft | 10 kts | 349° |
| 2026-05-06 14:42 | 24.55375 | 39.71201 | 2105 ft | 9 kts | 349° |
| 2026-05-06 14:42 | 24.55430 | 39.71190 | 2107 ft | 7 kts | 349° |
| 2026-05-06 14:42 | 24.55508 | 39.71173 | 2105 ft | 16 kts | 349° |
| 2026-05-06 14:43 | 24.55607 | 39.71152 | 2105 ft | 13 kts | 349° |
| 2026-05-06 14:43 | 24.55703 | 39.71132 | 2106 ft | 14 kts | 349° |
| 2026-05-06 14:43 | 24.55794 | 39.71112 | 2105 ft | 12 kts | 349° |
| 2026-05-06 14:43 | 24.55875 | 39.71095 | 2105 ft | 13 kts | 349° |
| 2026-05-06 14:44 | 24.55970 | 39.71075 | 2105 ft | 13 kts | 347° |
| 2026-05-06 14:44 | 24.56010 | 39.70985 | 2105 ft | 16 kts | 260° |
| 2026-05-06 14:44 | 24.56018 | 39.70876 | 2107 ft | 15 kts | 316° |
| 2026-05-06 14:45 | 24.56273 | 39.70813 | 2108 ft | 21 kts | 348° |
| 2026-05-06 14:45 | 24.56422 | 39.70783 | 2108 ft | 22 kts | 350° |
| 2026-05-06 14:45 | 24.56582 | 39.70750 | 2107 ft | 24 kts | 349° |
| 2026-05-06 14:45 | 24.56745 | 39.70715 | 2107 ft | 25 kts | 349° |
| 2026-05-06 14:46 | 24.56919 | 39.70678 | 2106 ft | 26 kts | 349° |
| 2026-05-06 14:46 | 24.57099 | 39.70640 | 2106 ft | 27 kts | 349° |
| 2026-05-06 14:46 | 24.57284 | 39.70602 | 2106 ft | 27 kts | 349° |
| 2026-05-06 14:46 | 24.57469 | 39.70562 | 2107 ft | 25 kts | 349° |
| 2026-05-06 14:47 | 24.57619 | 39.70528 | 2107 ft | 22 kts | 340° |
| 2026-05-06 14:47 | 24.57637 | 39.70395 | 2111 ft | 17 kts | 257° |
| 2026-05-06 14:47 | 24.57585 | 39.70345 | 2111 ft | 0 kts | 169° |
| 2026-05-06 14:48 | 24.57581 | 39.70346 | 2113 ft | 6 kts | 169° |
| 2026-05-06 14:48 | 24.57311 | 39.70403 | 2110 ft | 74 kts | 168° |
| 2026-05-06 14:48 | 24.56598 | 39.70554 | 2114 ft | 131 kts | 169° |
| 2026-05-06 14:48 | 24.55539 | 39.70780 | 2111 ft | 176 kts | 169° |
| 2026-05-06 14:49 | 24.54331 | 39.71045 | 2652 ft | 179 kts | 174° |
| 2026-05-06 14:49 | 24.53085 | 39.71308 | 3330 ft | 180 kts | 175° |
| 2026-05-06 14:49 | 24.51862 | 39.71564 | 3919 ft | 184 kts | 175° |
| 2026-05-06 14:49 | 24.50546 | 39.71831 | 4156 ft | 202 kts | 175° |
| 2026-05-06 14:50 | 24.49088 | 39.72126 | 4282 ft | 224 kts | 174° |
| 2026-05-06 14:50 | 24.47470 | 39.72457 | 4449 ft | 248 kts | 173° |
| 2026-05-06 14:50 | 24.45693 | 39.72827 | 4660 ft | 271 kts | 172° |
| 2026-05-06 14:50 | 24.43806 | 39.73228 | 5200 ft | 279 kts | 172° |
| 2026-05-06 14:51 | 24.41886 | 39.73643 | 5906 ft | 282 kts | 173° |
| 2026-05-06 14:51 | 24.39975 | 39.74055 | 6611 ft | 285 kts | 173° |
| 2026-05-06 14:51 | 24.38014 | 39.74473 | 7310 ft | 287 kts | 172° |
| 2026-05-06 14:51 | 24.36050 | 39.74890 | 8069 ft | 288 kts | 172° |
| 2026-05-06 14:52 | 24.34090 | 39.75306 | 8846 ft | 287 kts | 173° |
| 2026-05-06 14:52 | 24.32107 | 39.75456 | 9610 ft | 283 kts | 189° |
| 2026-05-06 14:52 | 24.30224 | 39.74914 | 10342 ft | 279 kts | 207° |
| 2026-05-06 14:52 | 24.28590 | 39.73751 | 10856 ft | 288 kts | 223° |
| 2026-05-06 14:53 | 24.27319 | 39.71947 | 10995 ft | 312 kts | 242° |
| 2026-05-06 14:53 | 24.26684 | 39.69618 | 11141 ft | 336 kts | 263° |
| 2026-05-06 14:53 | 24.26916 | 39.67024 | 11559 ft | 351 kts | 284° |
| 2026-05-06 14:53 | 24.27775 | 39.64486 | 12137 ft | 356 kts | 287° |
| 2026-05-06 14:54 | 24.28578 | 39.61907 | 12784 ft | 358 kts | 284° |
| 2026-05-06 14:54 | 24.29441 | 39.59326 | 13436 ft | 364 kts | 295° |
| 2026-05-06 14:54 | 24.30975 | 39.57151 | 14028 ft | 375 kts | 314° |
| 2026-05-06 14:54 | 24.33206 | 39.55602 | 14570 ft | 386 kts | 333° |
| 2026-05-06 14:55 | 24.35713 | 39.54500 | 15130 ft | 390 kts | 334° |
| 2026-05-06 14:55 | 24.38250 | 39.53403 | 15678 ft | 393 kts | 334° |
| 2026-05-06 14:55 | 24.40807 | 39.52299 | 16227 ft | 396 kts | 334° |
| 2026-05-06 14:55 | 24.43380 | 39.51183 | 16779 ft | 399 kts | 334° |
| 2026-05-06 14:56 | 24.45970 | 39.50053 | 17313 ft | 402 kts | 334° |
| 2026-05-06 14:56 | 24.48580 | 39.48911 | 17869 ft | 405 kts | 334° |
| 2026-05-06 14:56 | 24.50315 | 39.48151 | 18219 ft | 407 kts | 334° |
| 2026-05-06 14:56 | 24.53814 | 39.46614 | 18831 ft | 410 kts | 334° |
| 2026-05-06 14:57 | 24.56471 | 39.45444 | 19296 ft | 413 kts | 334° |
| 2026-05-06 14:57 | 24.59147 | 39.44264 | 19741 ft | 415 kts | 334° |
| 2026-05-06 14:57 | 24.61844 | 39.43075 | 20197 ft | 418 kts | 334° |
| 2026-05-06 14:57 | 24.63642 | 39.42281 | 20502 ft | 420 kts | 333° |
| 2026-05-06 14:58 | 24.66371 | 39.41078 | 20976 ft | 424 kts | 334° |
| 2026-05-06 14:58 | 24.69119 | 39.39870 | 21444 ft | 426 kts | 333° |
| 2026-05-06 14:58 | 24.71879 | 39.38657 | 21884 ft | 429 kts | 333° |
| 2026-05-06 14:58 | 24.74665 | 39.37435 | 22322 ft | 432 kts | 333° |
| 2026-05-06 14:59 | 24.77465 | 39.36207 | 22786 ft | 435 kts | 333° |
| 2026-05-06 14:59 | 24.80285 | 39.34968 | 23235 ft | 438 kts | 333° |
| 2026-05-06 14:59 | 24.83124 | 39.33713 | 23632 ft | 440 kts | 333° |
| 2026-05-06 14:59 | 24.85976 | 39.32451 | 23962 ft | 442 kts | 333° |
| 2026-05-06 15:00 | 24.88834 | 39.31185 | 24303 ft | 444 kts | 332° |
| 2026-05-06 15:00 | 24.91709 | 39.29913 | 24673 ft | 445 kts | 332° |
| 2026-05-06 15:00 | 24.94545 | 39.28657 | 25053 ft | 446 kts | 332° |
| 2026-05-06 15:00 | 24.97430 | 39.27381 | 25410 ft | 447 kts | 332° |
| 2026-05-06 15:01 | 25.00333 | 39.26097 | 25749 ft | 449 kts | 332° |
| 2026-05-06 15:01 | 25.03243 | 39.24809 | 26082 ft | 451 kts | 332° |
| 2026-05-06 15:01 | 25.06166 | 39.23517 | 26418 ft | 453 kts | 332° |
| 2026-05-06 15:01 | 25.09099 | 39.22223 | 26767 ft | 455 kts | 332° |
| 2026-05-06 15:02 | 25.12052 | 39.20920 | 27100 ft | 457 kts | 332° |
| 2026-05-06 15:02 | 25.14975 | 39.19626 | 27433 ft | 459 kts | 331° |
| 2026-05-06 15:02 | 25.17916 | 39.18245 | 27736 ft | 456 kts | 326° |
| 2026-05-06 15:02 | 25.20617 | 39.16442 | 28037 ft | 450 kts | 316° |
| 2026-05-06 15:03 | 25.22980 | 39.14220 | 28288 ft | 444 kts | 307° |
| 2026-05-06 15:03 | 25.24972 | 39.11648 | 28570 ft | 437 kts | 299° |
| 2026-05-06 15:03 | 25.26647 | 39.08857 | 28850 ft | 437 kts | 296° |
| 2026-05-06 15:03 | 25.28297 | 39.06037 | 29131 ft | 439 kts | 296° |
| 2026-05-06 15:04 | 25.29960 | 39.03196 | 29388 ft | 440 kts | 296° |
| 2026-05-06 15:04 | 25.31625 | 39.00350 | 29632 ft | 442 kts | 296° |
| 2026-05-06 15:04 | 25.33295 | 38.97492 | 29902 ft | 444 kts | 296° |
| 2026-05-06 15:04 | 25.34946 | 38.94663 | 30227 ft | 443 kts | 296° |
| 2026-05-06 15:05 | 25.36620 | 38.91800 | 30564 ft | 441 kts | 296° |
| 2026-05-06 15:05 | 25.38284 | 38.88956 | 30924 ft | 440 kts | 296° |
| 2026-05-06 15:05 | 25.39937 | 38.86121 | 31263 ft | 438 kts | 296° |
| 2026-05-06 15:05 | 25.41589 | 38.83289 | 31578 ft | 437 kts | 296° |
| 2026-05-06 15:06 | 25.43230 | 38.80469 | 31909 ft | 436 kts | 296° |
| 2026-05-06 15:06 | 25.44865 | 38.77653 | 32245 ft | 434 kts | 296° |
| 2026-05-06 15:06 | 25.46495 | 38.74846 | 32558 ft | 433 kts | 296° |
| 2026-05-06 15:06 | 25.48128 | 38.72041 | 32890 ft | 432 kts | 295° |
| 2026-05-06 15:07 | 25.49754 | 38.69249 | 33232 ft | 430 kts | 295° |
| 2026-05-06 15:07 | 25.51350 | 38.66502 | 33547 ft | 429 kts | 295° |
| 2026-05-06 15:07 | 25.52961 | 38.63727 | 33835 ft | 428 kts | 296° |
| 2026-05-06 15:07 | 25.54567 | 38.60955 | 34098 ft | 428 kts | 295° |
| 2026-05-06 15:08 | 25.56175 | 38.58178 | 34358 ft | 427 kts | 295° |
| 2026-05-06 15:08 | 25.57783 | 38.55406 | 34632 ft | 426 kts | 295° |
| 2026-05-06 15:08 | 25.59391 | 38.52635 | 34889 ft | 425 kts | 295° |
| 2026-05-06 15:08 | 25.60967 | 38.49917 | 35131 ft | 424 kts | 295° |
| 2026-05-06 15:09 | 25.62562 | 38.47164 | 35374 ft | 423 kts | 295° |
| 2026-05-06 15:09 | 25.64152 | 38.44413 | 35613 ft | 423 kts | 295° |
| 2026-05-06 15:09 | 25.65735 | 38.41667 | 35811 ft | 422 kts | 295° |
| 2026-05-06 15:10 | 25.68894 | 38.36180 | 35896 ft | 422 kts | 295° |
| 2026-05-06 15:10 | 25.72048 | 38.30707 | 35886 ft | 421 kts | 295° |
| 2026-05-06 15:11 | 25.75183 | 38.25277 | 35886 ft | 420 kts | 295° |
| 2026-05-06 15:11 | 25.78332 | 38.19800 | 35884 ft | 421 kts | 294° |
| 2026-05-06 15:12 | 25.81479 | 38.14324 | 35881 ft | 419 kts | 294° |
| 2026-05-06 15:12 | 25.84606 | 38.08859 | 35886 ft | 420 kts | 294° |
| 2026-05-06 15:13 | 25.87739 | 38.03391 | 35896 ft | 419 kts | 295° |
| 2026-05-06 15:13 | 25.90879 | 37.97920 | 35923 ft | 419 kts | 294° |
| 2026-05-06 15:14 | 25.93983 | 37.92489 | 35943 ft | 418 kts | 295° |
| 2026-05-06 15:14 | 25.97098 | 37.87026 | 35947 ft | 417 kts | 295° |
| 2026-05-06 15:15 | 25.99969 | 37.81475 | 35945 ft | 407 kts | 285° |
| 2026-05-06 15:15 | 26.01258 | 37.75508 | 35950 ft | 396 kts | 273° |
| 2026-05-06 15:16 | 26.02070 | 37.69442 | 35967 ft | 396 kts | 274° |
| 2026-05-06 15:16 | 26.02900 | 37.63371 | 35948 ft | 397 kts | 274° |
| 2026-05-06 15:17 | 26.03720 | 37.57327 | 35948 ft | 397 kts | 274° |
| 2026-05-06 15:17 | 26.04536 | 37.51245 | 35947 ft | 398 kts | 274° |
| 2026-05-06 15:18 | 26.05350 | 37.45154 | 35946 ft | 398 kts | 274° |
| 2026-05-06 15:18 | 26.06168 | 37.39053 | 35933 ft | 398 kts | 274° |
| 2026-05-06 15:19 | 26.06984 | 37.32989 | 35929 ft | 398 kts | 274° |
| 2026-05-06 15:19 | 26.07794 | 37.26888 | 35930 ft | 399 kts | 274° |
| 2026-05-06 15:20 | 26.08603 | 37.20779 | 35942 ft | 399 kts | 274° |
| 2026-05-06 15:20 | 26.09410 | 37.14670 | 35938 ft | 399 kts | 274° |
| 2026-05-06 15:21 | 26.10219 | 37.08559 | 35931 ft | 399 kts | 274° |
| 2026-05-06 15:21 | 26.11019 | 37.02446 | 35931 ft | 399 kts | 274° |
| 2026-05-06 15:22 | 26.11816 | 36.96379 | 35946 ft | 399 kts | 274° |
| 2026-05-06 15:22 | 26.12608 | 36.90262 | 35934 ft | 399 kts | 274° |
| 2026-05-06 15:23 | 26.13399 | 36.84145 | 35912 ft | 398 kts | 274° |
| 2026-05-06 15:23 | 26.14188 | 36.78033 | 35918 ft | 398 kts | 274° |
| 2026-05-06 15:24 | 26.14976 | 36.71968 | 35942 ft | 398 kts | 274° |
| 2026-05-06 15:24 | 26.15760 | 36.65859 | 35939 ft | 398 kts | 274° |
| 2026-05-06 15:25 | 26.16540 | 36.59767 | 35936 ft | 397 kts | 274° |
| 2026-05-06 15:25 | 26.17330 | 36.53669 | 35905 ft | 398 kts | 275° |
| 2026-05-06 15:26 | 26.19250 | 36.47832 | 35910 ft | 411 kts | 295° |
| 2026-05-06 15:26 | 26.20968 | 36.45297 | 35909 ft | 421 kts | 306° |
| 2026-05-06 15:26 | 26.23017 | 36.42946 | 35902 ft | 422 kts | 307° |
| 2026-05-06 15:27 | 26.27120 | 36.38254 | 35903 ft | 423 kts | 307° |
| 2026-05-06 15:27 | 26.31221 | 36.33537 | 35931 ft | 423 kts | 307° |
| 2026-05-06 15:28 | 26.35306 | 36.28818 | 35925 ft | 423 kts | 307° |
| 2026-05-06 15:28 | 26.39394 | 36.24094 | 35938 ft | 423 kts | 307° |
| 2026-05-06 15:29 | 26.43446 | 36.19402 | 35944 ft | 422 kts | 307° |
| 2026-05-06 15:29 | 26.47525 | 36.14686 | 35942 ft | 422 kts | 307° |
| 2026-05-06 15:30 | 26.51610 | 36.09955 | 35941 ft | 422 kts | 307° |
| 2026-05-06 15:30 | 26.55651 | 36.05259 | 35940 ft | 422 kts | 307° |
| 2026-05-06 15:31 | 26.59724 | 36.00524 | 35935 ft | 422 kts | 307° |
| 2026-05-06 15:31 | 26.63798 | 35.95789 | 35934 ft | 422 kts | 307° |
| 2026-05-06 15:32 | 26.69871 | 35.88713 | 35950 ft | 421 kts | 307° |
| 2026-05-06 15:32 | 26.73936 | 35.83980 | 35946 ft | 421 kts | 307° |
| 2026-05-06 15:33 | 26.77973 | 35.79263 | 35938 ft | 421 kts | 307° |
| 2026-05-06 15:33 | 26.82033 | 35.74522 | 35946 ft | 421 kts | 307° |
| 2026-05-06 15:34 | 26.86090 | 35.69782 | 35942 ft | 421 kts | 307° |
| 2026-05-06 15:34 | 26.90148 | 35.65039 | 35941 ft | 421 kts | 307° |
| 2026-05-06 15:35 | 26.94190 | 35.60290 | 35939 ft | 421 kts | 307° |
| 2026-05-06 15:35 | 26.98210 | 35.55573 | 35937 ft | 421 kts | 307° |
| 2026-05-06 15:36 | 27.02255 | 35.50819 | 35934 ft | 421 kts | 307° |
| 2026-05-06 15:36 | 27.06303 | 35.46064 | 35964 ft | 421 kts | 307° |
| 2026-05-06 15:37 | 27.10347 | 35.41300 | 35951 ft | 420 kts | 307° |
| 2026-05-06 15:37 | 27.14352 | 35.36575 | 35945 ft | 420 kts | 307° |
| 2026-05-06 15:38 | 27.18390 | 35.31810 | 35943 ft | 420 kts | 307° |
| 2026-05-06 15:38 | 27.22421 | 35.27056 | 35938 ft | 420 kts | 307° |
| 2026-05-06 15:39 | 27.26424 | 35.22325 | 35938 ft | 420 kts | 307° |
| 2026-05-06 15:39 | 27.30449 | 35.17558 | 35938 ft | 420 kts | 307° |
| 2026-05-06 15:40 | 27.34476 | 35.12787 | 35928 ft | 419 kts | 307° |
| 2026-05-06 15:40 | 27.38468 | 35.08046 | 35927 ft | 419 kts | 307° |
| 2026-05-06 15:41 | 27.42489 | 35.03271 | 35956 ft | 419 kts | 308° |
| 2026-05-06 15:41 | 27.46497 | 34.98500 | 35959 ft | 419 kts | 308° |
| 2026-05-06 15:42 | 27.50500 | 34.93731 | 35957 ft | 419 kts | 308° |
| 2026-05-06 15:42 | 27.54604 | 34.89101 | 35950 ft | 421 kts | 310° |
| 2026-05-06 15:43 | 27.58926 | 34.84625 | 35937 ft | 421 kts | 311° |
| 2026-05-06 15:43 | 27.63255 | 34.80165 | 35938 ft | 421 kts | 311° |
| 2026-05-06 15:44 | 27.67501 | 34.75694 | 35931 ft | 420 kts | 311° |
| 2026-05-06 15:44 | 27.71759 | 34.71176 | 35956 ft | 420 kts | 311° |
| 2026-05-06 15:45 | 27.76013 | 34.66651 | 35955 ft | 420 kts | 311° |
| 2026-05-06 15:45 | 27.80256 | 34.62131 | 35980 ft | 419 kts | 311° |
| 2026-05-06 15:46 | 27.84505 | 34.57618 | 35972 ft | 419 kts | 311° |
| 2026-05-06 15:46 | 27.88760 | 34.53099 | 35966 ft | 418 kts | 311° |
| 2026-05-06 15:47 | 27.92978 | 34.48602 | 35960 ft | 418 kts | 310° |
| 2026-05-06 15:47 | 27.97218 | 34.44080 | 35964 ft | 418 kts | 311° |
| 2026-05-06 15:48 | 28.00620 | 34.40218 | 35962 ft | 413 kts | 304° |
| 2026-05-06 15:48 | 28.04256 | 34.35184 | 35957 ft | 413 kts | 304° |
| 2026-05-06 15:49 | 28.07877 | 34.30178 | 35960 ft | 413 kts | 304° |
| 2026-05-06 15:49 | 28.11524 | 34.25139 | 35963 ft | 413 kts | 304° |
| 2026-05-06 15:50 | 28.15154 | 34.20100 | 36016 ft | 413 kts | 304° |
| 2026-05-06 15:50 | 28.18785 | 34.15048 | 36008 ft | 412 kts | 304° |
| 2026-05-06 15:51 | 28.22393 | 34.10040 | 36011 ft | 412 kts | 304° |
| 2026-05-06 15:51 | 28.26021 | 34.04989 | 36004 ft | 412 kts | 304° |
| 2026-05-06 15:52 | 28.29652 | 33.99945 | 35980 ft | 412 kts | 304° |
| 2026-05-06 15:52 | 28.33266 | 33.94918 | 36001 ft | 413 kts | 304° |
| 2026-05-06 15:53 | 28.36896 | 33.89841 | 35993 ft | 413 kts | 304° |
| 2026-05-06 15:53 | 28.40514 | 33.84773 | 35992 ft | 413 kts | 304° |
| 2026-05-06 15:54 | 28.44117 | 33.79734 | 35990 ft | 413 kts | 304° |
| 2026-05-06 15:54 | 28.47745 | 33.74654 | 35976 ft | 413 kts | 304° |
| 2026-05-06 15:55 | 28.51350 | 33.69586 | 35978 ft | 412 kts | 304° |
| 2026-05-06 15:55 | 28.54959 | 33.64509 | 36026 ft | 413 kts | 304° |
| 2026-05-06 15:56 | 28.58570 | 33.59457 | 36007 ft | 412 kts | 304° |
| 2026-05-06 15:56 | 28.62193 | 33.54383 | 36002 ft | 412 kts | 304° |
| 2026-05-06 15:57 | 28.65793 | 33.49315 | 35998 ft | 411 kts | 304° |
| 2026-05-06 15:57 | 28.69385 | 33.44244 | 35995 ft | 411 kts | 304° |
| 2026-05-06 15:58 | 28.72953 | 33.39196 | 35996 ft | 411 kts | 304° |
| 2026-05-06 15:58 | 28.76550 | 33.34108 | 35997 ft | 411 kts | 304° |
| 2026-05-06 15:59 | 28.80136 | 33.29025 | 35995 ft | 411 kts | 304° |
| 2026-05-06 15:59 | 28.83702 | 33.23964 | 35995 ft | 411 kts | 304° |
| 2026-05-06 16:00 | 28.87296 | 33.18869 | 36002 ft | 411 kts | 304° |
| 2026-05-06 16:00 | 28.90868 | 33.13810 | 36014 ft | 411 kts | 304° |
| 2026-05-06 16:01 | 28.94454 | 33.08707 | 36012 ft | 411 kts | 304° |
| 2026-05-06 16:01 | 28.98030 | 33.03604 | 36007 ft | 411 kts | 304° |
| 2026-05-06 16:02 | 29.01583 | 32.98532 | 36004 ft | 411 kts | 304° |
| 2026-05-06 16:02 | 29.05163 | 32.93425 | 36015 ft | 411 kts | 304° |
| 2026-05-06 16:03 | 29.08734 | 32.88319 | 36021 ft | 411 kts | 304° |
| 2026-05-06 16:03 | 29.12285 | 32.83235 | 36026 ft | 411 kts | 304° |
| 2026-05-06 16:04 | 29.15854 | 32.78114 | 36024 ft | 411 kts | 304° |
| 2026-05-06 16:04 | 29.19399 | 32.73029 | 36022 ft | 411 kts | 304° |
| 2026-05-06 16:05 | 29.22965 | 32.67903 | 36030 ft | 411 kts | 304° |
| 2026-05-06 16:05 | 29.26524 | 32.62779 | 36030 ft | 411 kts | 304° |
| 2026-05-06 16:06 | 29.30060 | 32.57681 | 36043 ft | 410 kts | 304° |
| 2026-05-06 16:06 | 29.33597 | 32.52545 | 36052 ft | 410 kts | 304° |
| 2026-05-06 16:07 | 29.37123 | 32.47390 | 36062 ft | 410 kts | 303° |
| 2026-05-06 16:07 | 29.40647 | 32.42234 | 36056 ft | 410 kts | 304° |
| 2026-05-06 16:08 | 29.44171 | 32.37081 | 36058 ft | 410 kts | 304° |
| 2026-05-06 16:08 | 29.47677 | 32.31953 | 36059 ft | 410 kts | 304° |
| 2026-05-06 16:09 | 29.51204 | 32.26804 | 36059 ft | 410 kts | 304° |
| 2026-05-06 16:09 | 29.54730 | 32.21639 | 36056 ft | 410 kts | 304° |
| 2026-05-06 16:10 | 29.58248 | 32.16469 | 36061 ft | 410 kts | 304° |
| 2026-05-06 16:10 | 29.61743 | 32.11331 | 36060 ft | 410 kts | 304° |
| 2026-05-06 16:11 | 29.65257 | 32.06163 | 36074 ft | 410 kts | 304° |
| 2026-05-06 16:11 | 29.68769 | 32.00984 | 36067 ft | 410 kts | 304° |
| 2026-05-06 16:12 | 29.72285 | 31.95801 | 36070 ft | 410 kts | 304° |
| 2026-05-06 16:12 | 29.74037 | 31.93214 | 35886 ft | 407 kts | 304° |
| 2026-05-06 16:12 | 29.75772 | 31.90646 | 34827 ft | 407 kts | 304° |
| 2026-05-06 16:13 | 29.77513 | 31.88061 | 33597 ft | 409 kts | 304° |
| 2026-05-06 16:13 | 29.79229 | 31.85498 | 32230 ft | 411 kts | 304° |
| 2026-05-06 16:13 | 29.80954 | 31.82855 | 30829 ft | 415 kts | 303° |
| 2026-05-06 16:13 | 29.82661 | 31.80195 | 29731 ft | 410 kts | 303° |
| 2026-05-06 16:14 | 29.84346 | 31.77548 | 28665 ft | 406 kts | 303° |
| 2026-05-06 16:14 | 29.86012 | 31.74920 | 28257 ft | 406 kts | 303° |
| 2026-05-06 16:14 | 29.87683 | 31.72288 | 28025 ft | 406 kts | 303° |
| 2026-05-06 16:14 | 29.89335 | 31.69694 | 27204 ft | 398 kts | 303° |
| 2026-05-06 16:15 | 29.90970 | 31.67139 | 26174 ft | 393 kts | 303° |
| 2026-05-06 16:15 | 29.92588 | 31.64622 | 25188 ft | 388 kts | 303° |
| 2026-05-06 16:15 | 29.93944 | 31.62022 | 24156 ft | 380 kts | 290° |
| 2026-05-06 16:15 | 29.94530 | 31.59045 | 22698 ft | 384 kts | 271° |
| 2026-05-06 16:16 | 29.94205 | 31.55985 | 21342 ft | 386 kts | 256° |
| 2026-05-06 16:16 | 29.93496 | 31.53002 | 20107 ft | 386 kts | 255° |
| 2026-05-06 16:16 | 29.92763 | 31.50020 | 18920 ft | 386 kts | 255° |
| 2026-05-06 16:16 | 29.92029 | 31.47039 | 17686 ft | 386 kts | 255° |
| 2026-05-06 16:17 | 29.91298 | 31.44065 | 16411 ft | 385 kts | 255° |
| 2026-05-06 16:17 | 29.90565 | 31.41097 | 15184 ft | 383 kts | 255° |
| 2026-05-06 16:17 | 29.89843 | 31.38186 | 14017 ft | 381 kts | 255° |
| 2026-05-06 16:17 | 29.89111 | 31.35252 | 12743 ft | 379 kts | 255° |
| 2026-05-06 16:18 | 29.88392 | 31.32341 | 11502 ft | 376 kts | 255° |
| 2026-05-06 16:18 | 29.87676 | 31.29457 | 10305 ft | 372 kts | 255° |
| 2026-05-06 16:18 | 29.87240 | 31.26558 | 9044 ft | 366 kts | 271° |
| 2026-05-06 16:18 | 29.87678 | 31.23719 | 7814 ft | 359 kts | 294° |
| 2026-05-06 16:19 | 29.89001 | 31.21439 | 7426 ft | 327 kts | 317° |
| 2026-05-06 16:19 | 29.90833 | 31.20148 | 7181 ft | 298 kts | 342° |
| 2026-05-06 16:19 | 29.92892 | 31.19978 | 6075 ft | 303 kts | 12° |
| 2026-05-06 16:19 | 29.94676 | 31.21038 | 5169 ft | 304 kts | 43° |
| 2026-05-06 16:20 | 29.95798 | 31.23051 | 4587 ft | 294 kts | 64° |
| 2026-05-06 16:20 | 29.96781 | 31.25013 | 4211 ft | 272 kts | 46° |
| 2026-05-06 16:20 | 29.98043 | 31.26508 | 3866 ft | 255 kts | 44° |
| 2026-05-06 16:20 | 29.99222 | 31.27962 | 3539 ft | 240 kts | 46° |
| 2026-05-06 16:21 | 30.00290 | 31.29371 | 3240 ft | 227 kts | 47° |
| 2026-05-06 16:21 | 30.01273 | 31.30683 | 2935 ft | 206 kts | 47° |
| 2026-05-06 16:21 | 30.02179 | 31.31889 | 2689 ft | 191 kts | 46° |
| 2026-05-06 16:21 | 30.03028 | 31.33015 | 2459 ft | 178 kts | 45° |
| 2026-05-06 16:22 | 30.03804 | 31.34047 | 2235 ft | 162 kts | 46° |
| 2026-05-06 16:22 | 30.04511 | 31.34986 | 2032 ft | 148 kts | 46° |
| 2026-05-06 16:22 | 30.05167 | 31.35858 | 1829 ft | 142 kts | 46° |
| 2026-05-06 16:22 | 30.05815 | 31.36716 | 1636 ft | 140 kts | 46° |
| 2026-05-06 16:23 | 30.06440 | 31.37547 | 1453 ft | 135 kts | 46° |
| 2026-05-06 16:23 | 30.07050 | 31.38357 | 1281 ft | 136 kts | 45° |
| 2026-05-06 16:23 | 30.07673 | 31.39181 | 1070 ft | 136 kts | 46° |
| 2026-05-06 16:23 | 30.08288 | 31.40006 | 846 ft | 135 kts | 46° |
| 2026-05-06 16:24 | 30.08908 | 31.40833 | 660 ft | 136 kts | 44° |
| 2026-05-06 16:24 | 30.09530 | 31.41664 | 465 ft | 136 kts | 44° |
| 2026-05-06 16:24 | 30.10142 | 31.42474 | 379 ft | 126 kts | 44° |
| 2026-05-06 16:24 | 30.10623 | 31.43112 | 372 ft | 81 kts | 49° |
| 2026-05-06 16:25 | 30.10919 | 31.43461 | 373 ft | 53 kts | 35° |
| 2026-05-06 16:25 | 30.11137 | 31.43589 | 374 ft | 24 kts | 23° |
| 2026-05-06 16:25 | 30.11248 | 31.43550 | 374 ft | 15 kts | 304° |
| 2026-05-06 16:25 | 30.11241 | 31.43434 | 374 ft | 15 kts | 284° |
| 2026-05-06 16:26 | 30.11317 | 31.43348 | 374 ft | 16 kts | 318° |
| 2026-05-06 16:26 | 30.11406 | 31.43261 | 374 ft | 17 kts | 320° |
| 2026-05-06 16:26 | 30.11500 | 31.43167 | 374 ft | 19 kts | 319° |
| 2026-05-06 16:26 | 30.11601 | 31.43067 | 374 ft | 20 kts | 319° |
| 2026-05-06 16:27 | 30.11708 | 31.42962 | 374 ft | 21 kts | 318° |
| 2026-05-06 16:27 | 30.11819 | 31.42850 | 374 ft | 22 kts | 320° |
| 2026-05-06 16:27 | 30.11934 | 31.42736 | 374 ft | 22 kts | 320° |
| 2026-05-06 16:27 | 30.12056 | 31.42617 | 372 ft | 24 kts | 319° |
| 2026-05-06 16:28 | 30.12181 | 31.42493 | 374 ft | 23 kts | 319° |
| 2026-05-06 16:28 | 30.12157 | 31.42338 | 374 ft | 23 kts | 230° |
| 2026-05-06 16:28 | 30.12049 | 31.42195 | 374 ft | 24 kts | 229° |
| 2026-05-06 16:28 | 30.11935 | 31.42043 | 374 ft | 26 kts | 230° |
| 2026-05-06 16:29 | 30.11816 | 31.41884 | 374 ft | 27 kts | 230° |
| 2026-05-06 16:29 | 30.11686 | 31.41713 | 374 ft | 29 kts | 229° |
| 2026-05-06 16:29 | 30.11564 | 31.41550 | 374 ft | 23 kts | 229° |
| 2026-05-06 16:29 | 30.11457 | 31.41408 | 374 ft | 24 kts | 229° |
| 2026-05-06 16:30 | 30.11343 | 31.41256 | 374 ft | 24 kts | 229° |
| 2026-05-06 16:30 | 30.11279 | 31.41170 | 374 ft | 21 kts | 229° |
| 2026-05-06 16:30 | 30.11142 | 31.40989 | 374 ft | 23 kts | 229° |
| 2026-05-06 16:30 | 30.11060 | 31.40854 | 374 ft | 17 kts | 268° |
| 2026-05-06 16:31 | 30.11063 | 31.40724 | 374 ft | 19 kts | 231° |
| 2026-05-06 16:31 | 30.10975 | 31.40607 | 374 ft | 19 kts | 229° |
| 2026-05-06 16:31 | 30.10923 | 31.40469 | 374 ft | 21 kts | 281° |
| 2026-05-06 16:31 | 30.10962 | 31.40319 | 374 ft | 19 kts | 287° |
| 2026-05-06 16:32 | 30.11001 | 31.40176 | 374 ft | 14 kts | 291° |
| 2026-05-06 16:32 | 30.11079 | 31.40159 | 374 ft | 9 kts | 17° |
| 2026-05-06 16:32 | 30.11101 | 31.40167 | 374 ft | 0 kts | 17° |